Ana Sayfa
METAR-TAF:

METAR-TAF

Havaalanları :

Waco, Teksas, Amerika Birleşik Devletleri

Enlem: 31-37-02N, Boylam: 097-13-40W, yükseklik: 157 m

Güncel hava durumu gözlemi

Rapor saat 06:51 UTC de 17 dakika önce yapıldı.
Rüzgar güneydan 12 kt
Sıcaklık 28°C
Nem 70%
Basınç 1014 hPa
Görüş mesafesi: 16.1 km
Açık gökyüzü

METAR: KACT 160651Z AUTO 19012KT 10SM CLR 28/22 A2993 RMK AO2 SLP125 T02780217

Saat: 02:08 (07:08 UTC)

Tahmin

Rapor saat 05:20 UTC de 1 saat ve 48 dakika önce yapıldı.
Ayın 16'si saat 06 UTC'den ayın 17'si saat 06 UTC'ye kadar geçerli Tahmin
Rüzgar güneydan 12 kt
Görüş mesafesi: 10 km
Açık gökyüzü

TAF: KACT 160520Z 1606/1706 17012KT P6SM SKC

4.000'den fazla havaalanı için hava durumu gözlemleri ve tahminleri (METAR ve TAF raporları).

Kullanılabilir istasyonlar harita üzerinde sarı ve kırmızı noktalarla gösterilir.

İstasyonun adını görmek için fareyi noktanın üzerinde gezdirin.

Sonrasında hava gözlem ve tahminlerini görmek için tıklayın.

Haritayı değiştirmek için: yaklaştırmak için siyah artı işaretli yeşil düğmeye ve uzaklaştırmak için de eksi işaretli düğmeye hızla tıklayın; bitişik haritalar için yeşil okları kullanın.


METAR-TAF: